createdAt,value
2023-04-08T00:00:30.946Z,5.10
2023-04-08T00:02:57.999Z,5.00
2023-04-08T00:05:25.465Z,5.00
2023-04-08T00:07:52.409Z,5.00
2023-04-08T00:10:19.673Z,5.10
2023-04-08T00:12:48.366Z,5.10
2023-04-08T00:15:15.467Z,5.00
2023-04-08T00:17:42.422Z,5.10
2023-04-08T00:20:09.968Z,5.00
2023-04-08T00:22:36.946Z,5.00
2023-04-08T00:25:06.797Z,5.00
2023-04-08T00:27:33.941Z,5.10
2023-04-08T00:30:01.761Z,5.10
2023-04-08T00:32:29.337Z,5.10
2023-04-08T00:34:56.642Z,5.10
2023-04-08T00:37:25.074Z,5.10
2023-04-08T00:39:54.047Z,5.00
2023-04-08T00:42:22.130Z,5.00
2023-04-08T00:44:49.095Z,5.00
2023-04-08T00:47:16.844Z,5.00
2023-04-08T00:49:44.741Z,5.00
2023-04-08T00:52:11.709Z,5.00
2023-04-08T00:54:38.797Z,5.00
2023-04-08T00:57:06.840Z,5.00
2023-04-08T00:59:36.094Z,5.00
2023-04-08T01:02:26.159Z,5.00
2023-04-08T01:05:05.124Z,5.00
2023-04-08T01:07:35.740Z,5.00
2023-04-08T01:10:22.917Z,5.00
2023-04-08T01:12:57.926Z,5.00
2023-04-08T01:15:29.865Z,5.00
2023-04-08T01:17:58.113Z,4.90
2023-04-08T01:20:27.394Z,4.90
2023-04-08T01:22:54.989Z,4.90
2023-04-08T01:25:26.352Z,4.90
2023-04-08T01:27:57.671Z,4.90
2023-04-08T01:30:26.148Z,4.90
2023-04-08T01:32:57.987Z,4.90
2023-04-08T01:35:25.503Z,4.90
2023-04-08T01:37:53.657Z,4.80
2023-04-08T01:40:20.784Z,4.80
2023-04-08T01:42:55.932Z,4.80
2023-04-08T01:45:24.250Z,4.80
2023-04-08T01:47:53.216Z,4.80
2023-04-08T01:50:21.366Z,4.80
2023-04-08T01:52:53.111Z,4.80
2023-04-08T01:55:20.722Z,4.80
2023-04-08T01:57:51.508Z,4.80
2023-04-08T02:00:24.936Z,4.80
2023-04-08T02:02:53.240Z,4.80
2023-04-08T02:05:20.488Z,4.80
2023-04-08T02:07:50.664Z,4.80
2023-04-08T02:10:17.807Z,4.80
2023-04-08T02:12:45.950Z,4.80
2023-04-08T02:15:14.409Z,4.70
2023-04-08T02:17:47.303Z,4.70
2023-04-08T02:20:14.326Z,4.60
2023-04-08T02:22:57.837Z,4.60
2023-04-08T02:25:26.275Z,4.70
2023-04-08T02:27:54.712Z,4.70
2023-04-08T02:30:22.593Z,4.70
2023-04-08T02:32:51.895Z,4.70
2023-04-08T02:35:20.020Z,4.70
2023-04-08T02:37:50.833Z,4.80
2023-04-08T02:40:32.141Z,4.80
2023-04-08T02:42:59.807Z,4.80
2023-04-08T02:45:38.206Z,4.80
2023-04-08T02:48:06.444Z,4.80
2023-04-08T02:50:33.631Z,4.70
2023-04-08T02:53:00.742Z,4.80
2023-04-08T02:55:27.670Z,4.70
2023-04-08T02:57:54.641Z,4.70
2023-04-08T03:00:21.772Z,4.80
2023-04-08T03:02:48.755Z,4.80
2023-04-08T03:05:16.963Z,4.80
2023-04-08T03:07:43.986Z,4.70
2023-04-08T03:10:11.256Z,4.70
2023-04-08T03:12:38.189Z,4.80
2023-04-08T03:15:06.311Z,4.70
2023-04-08T03:17:34.758Z,4.70
2023-04-08T03:20:05.035Z,4.70
2023-04-08T03:22:32.165Z,4.80
2023-04-08T03:24:59.459Z,4.70
2023-04-08T03:27:26.645Z,4.70
2023-04-08T03:29:54.097Z,4.70
2023-04-08T03:32:21.253Z,4.70
2023-04-08T03:34:51.218Z,4.70
2023-04-08T03:37:18.675Z,4.60
2023-04-08T03:39:46.506Z,4.60
2023-04-08T03:42:13.491Z,4.60
2023-04-08T03:44:40.390Z,4.60
2023-04-08T03:47:07.308Z,4.60
2023-04-08T03:49:34.195Z,4.60
2023-04-08T03:52:01.076Z,4.60
2023-04-08T03:54:27.947Z,4.60
2023-04-08T03:56:55.391Z,4.50
2023-04-08T03:59:22.280Z,4.60
2023-04-08T04:01:49.197Z,4.50
2023-04-08T04:04:16.454Z,4.60
2023-04-08T04:06:43.493Z,4.60
2023-04-08T04:09:11.304Z,4.50
2023-04-08T04:11:38.155Z,4.60
2023-04-08T04:14:05.043Z,4.60
2023-04-08T04:16:33.027Z,4.50
2023-04-08T04:19:00.452Z,4.60
2023-04-08T04:21:27.537Z,4.60
2023-04-08T04:23:54.510Z,4.70
2023-04-08T04:26:21.606Z,4.70
2023-04-08T04:28:48.823Z,4.60
2023-04-08T04:31:24.087Z,4.60
2023-04-08T04:33:51.016Z,4.60
2023-04-08T04:36:18.309Z,4.60
2023-04-08T04:38:45.727Z,4.60
2023-04-08T04:41:13.101Z,4.70
2023-04-08T04:43:39.975Z,4.70
2023-04-08T04:46:09.099Z,4.70
2023-04-08T04:48:36.505Z,4.80
2023-04-08T04:51:03.619Z,4.70
2023-04-08T04:53:31.903Z,4.80
2023-04-08T04:55:59.031Z,4.80
2023-04-08T04:58:25.945Z,4.80
2023-04-08T05:00:52.833Z,4.80
2023-04-08T05:03:19.847Z,4.90
2023-04-08T05:05:54.235Z,4.90
2023-04-08T05:08:22.129Z,4.90
2023-04-08T05:10:51.010Z,4.90
2023-04-08T05:13:18.693Z,4.90
2023-04-08T05:15:46.156Z,4.90
2023-04-08T05:18:13.404Z,4.90
2023-04-08T05:20:40.421Z,4.80
2023-04-08T05:23:07.906Z,4.80
2023-04-08T05:25:34.845Z,4.80
2023-04-08T05:28:01.884Z,4.90
2023-04-08T05:30:28.959Z,5.00
2023-04-08T05:32:58.516Z,5.00
2023-04-08T05:35:26.945Z,5.00
2023-04-08T05:37:53.897Z,5.00
2023-04-08T05:40:20.854Z,5.00
2023-04-08T05:42:47.819Z,4.90
2023-04-08T05:45:14.771Z,4.90
2023-04-08T05:47:41.724Z,4.80
2023-04-08T05:50:09.144Z,4.80
2023-04-08T05:52:36.009Z,4.80
2023-04-08T05:55:02.927Z,4.90
2023-04-08T05:57:29.768Z,4.90
2023-04-08T05:59:56.732Z,4.90
2023-04-08T06:02:23.706Z,5.00
2023-04-08T06:04:50.816Z,5.00
2023-04-08T06:07:17.717Z,4.90
2023-04-08T06:09:45.377Z,4.90
2023-04-08T06:12:12.792Z,4.90
2023-04-08T06:14:40.081Z,4.90
2023-04-08T06:17:06.956Z,4.80
2023-04-08T06:19:34.784Z,4.80
2023-04-08T06:22:01.700Z,4.80
2023-04-08T06:24:29.638Z,4.80
2023-04-08T06:26:56.876Z,4.80
2023-04-08T06:29:23.889Z,4.70
2023-04-08T06:31:51.309Z,4.70
2023-04-08T06:34:18.219Z,4.80
2023-04-08T06:36:45.092Z,4.80
2023-04-08T06:39:12.021Z,4.90
2023-04-08T06:41:38.868Z,4.90
2023-04-08T06:44:05.870Z,4.90
2023-04-08T06:46:32.803Z,4.90
2023-04-08T06:48:59.811Z,5.00
2023-04-08T06:51:27.986Z,5.00
2023-04-08T06:53:54.900Z,5.00
2023-04-08T06:56:23.112Z,5.00
2023-04-08T06:58:50.258Z,5.00
2023-04-08T07:01:17.879Z,5.00
2023-04-08T07:03:44.907Z,4.90
2023-04-08T07:06:11.978Z,4.90
2023-04-08T07:08:38.959Z,4.90
2023-04-08T07:11:05.943Z,4.90
2023-04-08T07:13:32.903Z,4.90
2023-04-08T07:15:59.934Z,4.90
2023-04-08T07:18:26.906Z,4.90
2023-04-08T07:20:54.232Z,4.80
2023-04-08T07:23:21.442Z,4.80
2023-04-08T07:25:48.527Z,4.80
2023-04-08T07:28:15.753Z,4.90
2023-04-08T07:30:42.749Z,4.80
2023-04-08T07:33:09.680Z,4.90
2023-04-08T07:35:36.547Z,4.80
2023-04-08T07:38:03.606Z,4.80
2023-04-08T07:40:30.882Z,4.90
2023-04-08T07:42:57.748Z,4.90
2023-04-08T07:45:24.627Z,4.90
2023-04-08T07:47:51.609Z,5.10
2023-04-08T07:50:19.000Z,5.10
2023-04-08T07:52:46.118Z,5.10
2023-04-08T07:55:13.118Z,5.10
2023-04-08T07:57:40.153Z,5.10
2023-04-08T08:00:09.277Z,5.00
2023-04-08T08:02:36.219Z,5.00
2023-04-08T08:05:03.713Z,5.10
2023-04-08T08:07:30.986Z,5.10
2023-04-08T08:09:57.875Z,5.10
2023-04-08T08:12:24.711Z,5.10
2023-04-08T08:14:54.803Z,5.00
2023-04-08T08:17:21.893Z,5.00
2023-04-08T08:19:48.798Z,5.00
2023-04-08T08:22:15.708Z,5.10
2023-04-08T08:24:42.783Z,5.00
2023-04-08T08:27:12.830Z,5.00
2023-04-08T08:29:39.801Z,5.00
2023-04-08T08:32:06.745Z,5.10
2023-04-08T08:34:33.779Z,5.10
2023-04-08T08:37:00.719Z,5.10
2023-04-08T08:39:27.571Z,5.20
2023-04-08T08:41:54.465Z,5.20
2023-04-08T08:44:21.356Z,5.20
2023-04-08T08:46:48.744Z,5.20
2023-04-08T08:49:16.078Z,5.20
2023-04-08T08:51:46.442Z,5.20
2023-04-08T08:54:14.966Z,5.20
2023-04-08T08:56:43.489Z,5.20
2023-04-08T08:59:10.573Z,5.20
2023-04-08T09:01:41.674Z,5.20
2023-04-08T09:04:16.012Z,5.20
2023-04-08T09:06:44.509Z,5.30
2023-04-08T09:09:11.839Z,5.40
2023-04-08T09:11:43.952Z,5.50
2023-04-08T09:14:22.710Z,5.50
2023-04-08T09:16:50.158Z,5.50
2023-04-08T09:19:17.176Z,5.50
2023-04-08T09:21:44.566Z,5.50
2023-04-08T09:24:29.171Z,5.50
2023-04-08T09:26:56.723Z,5.60
2023-04-08T09:29:30.511Z,5.70
2023-04-08T09:32:01.638Z,5.80
2023-04-08T09:34:29.770Z,5.80
2023-04-08T09:36:56.855Z,5.90
2023-04-08T09:39:24.183Z,5.80
2023-04-08T09:41:52.503Z,5.80
2023-04-08T09:44:21.364Z,5.70
2023-04-08T09:46:52.642Z,5.70
2023-04-08T09:49:22.576Z,5.70
2023-04-08T09:52:01.082Z,5.70
2023-04-08T09:54:52.349Z,5.80
2023-04-08T09:57:32.111Z,5.80
2023-04-08T10:00:07.598Z,5.80
2023-04-08T10:02:45.923Z,5.90
2023-04-08T10:05:15.024Z,6.00
2023-04-08T10:07:42.530Z,6.10
2023-04-08T10:10:11.959Z,6.10
2023-04-08T10:12:39.302Z,6.00
2023-04-08T10:15:43.257Z,6.00
2023-04-08T10:18:10.096Z,6.10
2023-04-08T10:20:36.963Z,6.10
2023-04-08T10:23:05.597Z,5.90
2023-04-08T10:25:33.853Z,5.90
2023-04-08T10:28:03.519Z,5.90
2023-04-08T10:30:33.455Z,6.00
2023-04-08T10:33:01.514Z,6.00
2023-04-08T10:35:33.050Z,5.90
2023-04-08T10:38:01.188Z,5.90
2023-04-08T10:40:28.099Z,5.90
2023-04-08T10:42:58.698Z,6.00
2023-04-08T10:45:25.738Z,6.00
2023-04-08T10:47:52.634Z,6.00
2023-04-08T10:50:21.414Z,5.90
2023-04-08T10:52:52.629Z,6.00
2023-04-08T10:55:28.796Z,6.10
2023-04-08T10:57:58.134Z,6.20
2023-04-08T11:00:34.546Z,6.20
2023-04-08T11:03:03.235Z,6.30
2023-04-08T11:05:30.312Z,6.30
2023-04-08T11:07:58.427Z,6.40
2023-04-08T11:10:27.050Z,6.30
2023-04-08T11:12:57.468Z,6.30
2023-04-08T11:15:30.427Z,6.40
2023-04-08T11:17:57.592Z,6.40
2023-04-08T11:20:25.429Z,6.60
2023-04-08T11:22:52.537Z,6.60
2023-04-08T11:25:19.698Z,6.70
2023-04-08T11:27:47.720Z,6.80
2023-04-08T11:30:14.679Z,6.80
2023-04-08T11:32:41.835Z,7.00
2023-04-08T11:35:08.978Z,7.00
2023-04-08T11:37:42.659Z,6.80
2023-04-08T11:40:11.308Z,6.80
2023-04-08T11:42:39.288Z,6.80
2023-04-08T11:45:13.982Z,6.80
2023-04-08T11:47:41.136Z,7.00
2023-04-08T11:50:09.334Z,7.10
2023-04-08T11:52:47.744Z,7.10
2023-04-08T11:55:31.526Z,7.20
2023-04-08T11:58:03.713Z,7.20
2023-04-08T12:00:31.382Z,7.20
2023-04-08T12:02:58.405Z,7.20
2023-04-08T12:05:25.559Z,7.10
2023-04-08T12:07:52.490Z,7.00
2023-04-08T12:10:19.601Z,6.90
2023-04-08T12:12:46.510Z,6.80
2023-04-08T12:15:13.487Z,6.70
2023-04-08T12:17:40.722Z,6.80
2023-04-08T12:20:08.103Z,6.80
2023-04-08T12:22:34.993Z,6.80
2023-04-08T12:25:03.829Z,6.80
2023-04-08T12:27:34.006Z,6.90
2023-04-08T12:30:02.310Z,6.90
2023-04-08T12:32:29.399Z,6.90
2023-04-08T12:34:56.336Z,6.90
2023-04-08T12:37:23.196Z,6.80
2023-04-08T12:39:50.092Z,6.80
2023-04-08T12:42:17.005Z,6.80
2023-04-08T12:44:43.939Z,6.70
2023-04-08T12:47:11.097Z,6.80
2023-04-08T12:49:48.851Z,6.70
2023-04-08T12:52:17.440Z,6.80
2023-04-08T12:54:44.859Z,6.80
2023-04-08T12:57:12.592Z,6.80
2023-04-08T12:59:40.196Z,6.90
2023-04-08T13:02:08.097Z,6.90
2023-04-08T13:04:35.716Z,6.90
2023-04-08T13:07:04.454Z,7.00
2023-04-08T13:09:31.532Z,7.10
2023-04-08T13:11:58.577Z,7.10
2023-04-08T13:14:25.770Z,7.30
2023-04-08T13:16:52.767Z,7.30
2023-04-08T13:19:19.704Z,7.20
2023-04-08T13:21:46.604Z,7.10
2023-04-08T13:24:13.503Z,7.20
2023-04-08T13:26:40.547Z,7.30
2023-04-08T13:29:07.558Z,7.30
2023-04-08T13:31:34.534Z,7.30
2023-04-08T13:34:01.554Z,7.30
2023-04-08T13:36:31.686Z,7.30
2023-04-08T13:38:58.568Z,7.30
2023-04-08T13:41:26.240Z,7.40
2023-04-08T13:43:53.809Z,7.40
2023-04-08T13:46:21.031Z,7.40
2023-04-08T13:48:47.986Z,7.40
2023-04-08T13:51:14.860Z,7.40
2023-04-08T13:53:41.734Z,7.50
2023-04-08T13:56:08.689Z,7.50
2023-04-08T13:58:35.541Z,7.40
2023-04-08T14:01:02.881Z,7.40
2023-04-08T14:03:29.891Z,7.40
2023-04-08T14:05:58.224Z,7.30
2023-04-08T14:08:26.674Z,7.20
2023-04-08T14:10:55.963Z,7.20
2023-04-08T14:13:22.980Z,7.20
2023-04-08T14:15:50.090Z,7.20
2023-04-08T14:18:19.843Z,7.10
2023-04-08T14:20:46.702Z,7.20
2023-04-08T14:23:13.726Z,7.20
2023-04-08T14:25:41.024Z,7.20
2023-04-08T14:28:08.208Z,7.10
2023-04-08T14:30:37.928Z,7.10
2023-04-08T14:33:07.806Z,7.10
2023-04-08T14:35:35.204Z,7.10
2023-04-08T14:38:02.211Z,7.20
2023-04-08T14:40:29.213Z,7.20
2023-04-08T14:42:56.131Z,7.30
2023-04-08T14:45:23.054Z,7.30
2023-04-08T14:47:50.046Z,7.20
2023-04-08T14:50:17.004Z,7.20
2023-04-08T14:52:45.414Z,7.20
2023-04-08T14:55:12.401Z,7.20
2023-04-08T14:57:39.271Z,7.20
2023-04-08T15:00:07.690Z,7.30
2023-04-08T15:02:34.750Z,7.20
2023-04-08T15:05:01.726Z,7.20
2023-04-08T15:07:28.717Z,7.20
2023-04-08T15:09:56.597Z,7.20
2023-04-08T15:12:24.545Z,7.10
2023-04-08T15:14:51.586Z,7.10
2023-04-08T15:17:18.433Z,7.10
2023-04-08T15:19:45.366Z,7.30
2023-04-08T15:22:12.996Z,7.30
2023-04-08T15:24:39.900Z,7.30
2023-04-08T15:27:06.782Z,7.20
2023-04-08T15:29:33.727Z,7.20
2023-04-08T15:32:00.809Z,7.10
2023-04-08T15:34:28.544Z,7.20
2023-04-08T15:36:57.297Z,7.30
2023-04-08T15:39:24.625Z,7.30
2023-04-08T15:41:51.634Z,7.20
2023-04-08T15:44:18.545Z,7.30
2023-04-08T15:46:45.620Z,7.20
2023-04-08T15:49:12.598Z,7.20
2023-04-08T15:51:39.464Z,7.00
2023-04-08T15:54:06.479Z,6.80
2023-04-08T15:56:33.713Z,6.70
2023-04-08T15:59:00.739Z,6.60
2023-04-08T16:01:27.636Z,6.60
2023-04-08T16:03:54.582Z,6.50
2023-04-08T16:06:21.513Z,6.50
2023-04-08T16:08:48.795Z,6.40
2023-04-08T16:11:16.954Z,6.40
2023-04-08T16:13:43.833Z,6.40
2023-04-08T16:16:12.421Z,6.40
2023-04-08T16:18:41.410Z,6.40
2023-04-08T16:21:08.766Z,6.40
2023-04-08T16:23:37.725Z,6.30
2023-04-08T16:26:08.705Z,6.40
2023-04-08T16:28:37.108Z,6.50
2023-04-08T16:31:04.160Z,6.50
2023-04-08T16:33:32.185Z,6.50
2023-04-08T16:36:00.330Z,6.40
2023-04-08T16:38:27.638Z,6.50
2023-04-08T16:40:58.557Z,6.50
2023-04-08T16:43:26.185Z,6.50
2023-04-08T16:45:53.646Z,6.60
2023-04-08T16:48:20.846Z,6.70
2023-04-08T16:50:47.789Z,6.70
2023-04-08T16:53:14.697Z,6.70
2023-04-08T16:55:41.581Z,6.70
2023-04-08T16:58:08.465Z,6.70
2023-04-08T17:00:35.401Z,6.70
2023-04-08T17:03:02.464Z,6.60
2023-04-08T17:05:29.542Z,6.60
2023-04-08T17:07:56.667Z,6.60
2023-04-08T17:10:23.980Z,6.70
2023-04-08T17:12:51.325Z,6.60
2023-04-08T17:15:18.384Z,6.70
2023-04-08T17:17:45.605Z,6.70
2023-04-08T17:20:12.831Z,6.70
2023-04-08T17:22:39.790Z,6.60
2023-04-08T17:25:07.205Z,6.70
2023-04-08T17:27:34.197Z,6.70
2023-04-08T17:30:01.356Z,6.70
2023-04-08T17:32:28.298Z,6.80
2023-04-08T17:34:55.606Z,6.80
2023-04-08T17:37:22.498Z,6.80
2023-04-08T17:39:49.418Z,6.80
2023-04-08T17:42:17.002Z,6.80
2023-04-08T17:44:44.866Z,6.80
2023-04-08T17:47:11.940Z,6.70
2023-04-08T17:49:38.873Z,6.80
2023-04-08T17:52:06.275Z,6.80
2023-04-08T17:54:34.655Z,6.80
2023-04-08T17:57:04.315Z,6.80
2023-04-08T17:59:31.259Z,6.80
2023-04-08T18:01:58.302Z,6.80
2023-04-08T18:04:25.520Z,6.80
2023-04-08T18:06:52.519Z,6.70
2023-04-08T18:09:19.394Z,6.70
2023-04-08T18:11:46.390Z,6.70
2023-04-08T18:14:13.233Z,6.70
2023-04-08T18:16:40.149Z,6.70
2023-04-08T18:19:07.013Z,6.70
2023-04-08T18:21:33.908Z,6.60
2023-04-08T18:24:01.125Z,6.70
2023-04-08T18:26:28.586Z,6.60
2023-04-08T18:28:55.586Z,6.60
2023-04-08T18:31:24.308Z,6.60
2023-04-08T18:33:51.667Z,6.50
2023-04-08T18:36:19.287Z,6.50
2023-04-08T18:38:46.224Z,6.50
2023-04-08T18:41:13.437Z,6.40
2023-04-08T18:43:40.701Z,6.40
2023-04-08T18:46:07.858Z,6.40
2023-04-08T18:48:34.791Z,6.50
2023-04-08T18:51:04.395Z,6.40
2023-04-08T18:53:31.330Z,6.40
2023-04-08T18:55:58.669Z,6.40
2023-04-08T18:58:27.339Z,6.40
2023-04-08T19:00:54.327Z,6.50
2023-04-08T19:03:21.649Z,6.50
2023-04-08T19:05:49.209Z,6.50
2023-04-08T19:08:16.128Z,6.50
2023-04-08T19:10:42.988Z,6.40
2023-04-08T19:13:09.885Z,6.40
2023-04-08T19:15:37.102Z,6.40
2023-04-08T19:18:04.282Z,6.40
2023-04-08T19:20:31.218Z,6.40
2023-04-08T19:22:58.108Z,6.40
2023-04-08T19:25:24.953Z,6.30
2023-04-08T19:27:51.832Z,6.30
2023-04-08T19:30:18.742Z,6.30
2023-04-08T19:32:46.198Z,6.30
2023-04-08T19:35:13.495Z,6.30
2023-04-08T19:37:40.964Z,6.30
2023-04-08T19:40:09.165Z,6.30
2023-04-08T19:42:36.595Z,6.30
2023-04-08T19:45:03.901Z,6.30
2023-04-08T19:47:30.842Z,6.20
2023-04-08T19:49:58.384Z,6.20
2023-04-08T19:52:25.597Z,6.20
2023-04-08T19:54:53.257Z,6.20
2023-04-08T19:57:20.720Z,6.20
2023-04-08T19:59:50.495Z,6.20
2023-04-08T20:02:17.466Z,6.10
2023-04-08T20:04:45.743Z,6.10
2023-04-08T20:07:13.716Z,6.10
2023-04-08T20:09:40.837Z,6.10
2023-04-08T20:12:07.713Z,6.10
2023-04-08T20:14:37.383Z,6.10
2023-04-08T20:17:04.631Z,6.10
2023-04-08T20:19:31.515Z,6.10
2023-04-08T20:21:58.643Z,6.10
2023-04-08T20:24:25.546Z,6.10
2023-04-08T20:26:52.616Z,6.10
2023-04-08T20:29:19.661Z,6.10
2023-04-08T20:31:46.972Z,6.10
2023-04-08T20:34:14.108Z,6.10
2023-04-08T20:36:41.302Z,6.10
2023-04-08T20:39:11.316Z,6.10
2023-04-08T20:41:38.415Z,6.10
2023-04-08T20:44:07.119Z,6.10
2023-04-08T20:46:35.296Z,6.10
2023-04-08T20:49:03.802Z,6.10
2023-04-08T20:51:33.887Z,6.10
2023-04-08T20:54:01.196Z,6.10
2023-04-08T20:56:28.140Z,6.10
2023-04-08T20:58:56.335Z,6.00
2023-04-08T21:01:24.505Z,6.00
2023-04-08T21:03:51.698Z,6.00
2023-04-08T21:06:19.834Z,5.90
2023-04-08T21:08:47.274Z,5.90
2023-04-08T21:11:14.536Z,5.90
2023-04-08T21:13:41.650Z,5.80
2023-04-08T21:16:09.290Z,5.80
2023-04-08T21:18:38.662Z,5.80
2023-04-08T21:21:05.895Z,5.70
2023-04-08T21:23:32.836Z,5.70
2023-04-08T21:26:00.790Z,5.70
2023-04-08T21:28:29.626Z,5.60
2023-04-08T21:30:56.755Z,5.60
2023-04-08T21:33:23.627Z,5.60
2023-04-08T21:35:50.581Z,5.60
2023-04-08T21:38:17.466Z,5.60
2023-04-08T21:40:44.413Z,5.60
2023-04-08T21:43:11.472Z,5.60
2023-04-08T21:45:38.362Z,5.60
2023-04-08T21:48:05.679Z,5.60
2023-04-08T21:50:32.620Z,5.60
2023-04-08T21:52:59.617Z,5.60
2023-04-08T21:55:27.204Z,5.70
2023-04-08T21:57:54.056Z,5.70
2023-04-08T22:00:21.016Z,5.70
2023-04-08T22:02:48.176Z,5.60
2023-04-08T22:05:15.130Z,5.60
2023-04-08T22:07:42.450Z,5.70
2023-04-08T22:10:09.921Z,5.70
2023-04-08T22:12:36.788Z,5.70
2023-04-08T22:15:04.376Z,5.70
2023-04-08T22:17:31.611Z,5.70
2023-04-08T22:19:58.533Z,5.70
2023-04-08T22:22:25.487Z,5.70
2023-04-08T22:24:52.425Z,5.80
2023-04-08T22:27:19.248Z,5.80
2023-04-08T22:29:46.092Z,5.80
2023-04-08T22:32:13.296Z,5.70
2023-04-08T22:34:40.528Z,5.80
2023-04-08T22:37:07.403Z,5.70
2023-04-08T22:39:34.253Z,5.70
2023-04-08T22:42:01.206Z,5.70
2023-04-08T22:44:28.191Z,5.70
2023-04-08T22:46:55.090Z,5.70
2023-04-08T22:49:21.944Z,5.70
2023-04-08T22:51:49.359Z,5.70
2023-04-08T22:54:16.261Z,5.70
2023-04-08T22:56:43.097Z,5.60
2023-04-08T22:59:09.946Z,5.60
2023-04-08T23:01:37.566Z,5.60
2023-04-08T23:04:04.701Z,5.70
2023-04-08T23:06:32.820Z,5.60
2023-04-08T23:08:59.730Z,5.70
2023-04-08T23:11:27.312Z,5.60
2023-04-08T23:13:54.173Z,5.60
2023-04-08T23:16:21.681Z,5.60
2023-04-08T23:18:48.627Z,5.60
2023-04-08T23:21:15.630Z,5.60
2023-04-08T23:23:42.534Z,5.60
2023-04-08T23:26:17.513Z,5.50
2023-04-08T23:28:44.523Z,5.50
2023-04-08T23:31:11.580Z,5.50
2023-04-08T23:33:38.506Z,5.50
2023-04-08T23:36:09.492Z,5.50
2023-04-08T23:38:37.153Z,5.50
2023-04-08T23:41:07.948Z,5.50
2023-04-08T23:43:35.348Z,5.50
2023-04-08T23:46:02.308Z,5.50
2023-04-08T23:48:29.197Z,5.50
2023-04-08T23:50:56.185Z,5.50
2023-04-08T23:53:23.307Z,5.50
2023-04-08T23:55:50.398Z,5.50
2023-04-08T23:58:17.337Z,5.40
